sensor_id;sensor_type;location;lat;lon;timestamp;P1;durP1;ratioP1;P2;durP2;ratioP2
11827;SDS011;5971;49.646;8.568;2022-07-01T00:02:23;0.70;;;0.43;;
11827;SDS011;5971;49.646;8.568;2022-07-01T00:05:26;0.70;;;0.50;;
11827;SDS011;5971;49.646;8.568;2022-07-01T00:08:27;0.70;;;0.63;;
11827;SDS011;5971;49.646;8.568;2022-07-01T00:11:29;1.00;;;0.50;;
11827;SDS011;5971;49.646;8.568;2022-07-01T00:14:30;0.68;;;0.50;;
11827;SDS011;5971;49.646;8.568;2022-07-01T00:17:31;0.52;;;0.52;;
11827;SDS011;5971;49.646;8.568;2022-07-01T00:20:33;1.48;;;0.77;;
11827;SDS011;5971;49.646;8.568;2022-07-01T00:23:34;1.38;;;0.65;;
11827;SDS011;5971;49.646;8.568;2022-07-01T00:26:36;0.47;;;0.47;;
11827;SDS011;5971;49.646;8.568;2022-07-01T00:29:37;0.50;;;0.43;;
11827;SDS011;5971;49.646;8.568;2022-07-01T00:32:39;0.55;;;0.43;;
11827;SDS011;5971;49.646;8.568;2022-07-01T00:35:41;0.60;;;0.40;;
11827;SDS011;5971;49.646;8.568;2022-07-01T00:38:42;0.55;;;0.55;;
11827;SDS011;5971;49.646;8.568;2022-07-01T00:41:44;0.57;;;0.52;;
11827;SDS011;5971;49.646;8.568;2022-07-01T00:44:45;0.90;;;0.60;;
11827;SDS011;5971;49.646;8.568;2022-07-01T00:47:46;0.68;;;0.52;;
11827;SDS011;5971;49.646;8.568;2022-07-01T00:50:48;0.47;;;0.43;;
11827;SDS011;5971;49.646;8.568;2022-07-01T00:53:50;1.58;;;0.65;;
11827;SDS011;5971;49.646;8.568;2022-07-01T00:56:52;0.57;;;0.40;;
11827;SDS011;5971;49.646;8.568;2022-07-01T00:59:53;0.82;;;0.55;;
11827;SDS011;5971;49.646;8.568;2022-07-01T01:02:55;1.15;;;0.50;;
11827;SDS011;5971;49.646;8.568;2022-07-01T01:05:56;2.00;;;0.80;;
11827;SDS011;5971;49.646;8.568;2022-07-01T01:08:58;0.70;;;0.70;;
11827;SDS011;5971;49.646;8.568;2022-07-01T01:12:00;0.68;;;0.50;;
11827;SDS011;5971;49.646;8.568;2022-07-01T01:15:01;0.73;;;0.52;;
11827;SDS011;5971;49.646;8.568;2022-07-01T01:18:03;1.08;;;0.65;;
11827;SDS011;5971;49.646;8.568;2022-07-01T01:21:04;0.68;;;0.63;;
11827;SDS011;5971;49.646;8.568;2022-07-01T01:24:07;1.00;;;0.70;;
11827;SDS011;5971;49.646;8.568;2022-07-01T01:27:08;1.65;;;0.73;;
11827;SDS011;5971;49.646;8.568;2022-07-01T01:30:10;0.85;;;0.60;;
11827;SDS011;5971;49.646;8.568;2022-07-01T01:33:15;0.90;;;0.60;;
11827;SDS011;5971;49.646;8.568;2022-07-01T01:36:16;1.20;;;0.68;;
11827;SDS011;5971;49.646;8.568;2022-07-01T01:39:17;0.73;;;0.52;;
11827;SDS011;5971;49.646;8.568;2022-07-01T01:42:19;1.25;;;0.63;;
11827;SDS011;5971;49.646;8.568;2022-07-01T01:45:20;1.00;;;0.70;;
11827;SDS011;5971;49.646;8.568;2022-07-01T01:48:22;1.65;;;0.93;;
11827;SDS011;5971;49.646;8.568;2022-07-01T01:51:23;1.25;;;0.60;;
11827;SDS011;5971;49.646;8.568;2022-07-01T01:54:25;1.45;;;0.70;;
11827;SDS011;5971;49.646;8.568;2022-07-01T01:57:26;2.35;;;0.70;;
11827;SDS011;5971;49.646;8.568;2022-07-01T02:00:28;1.63;;;0.90;;
11827;SDS011;5971;49.646;8.568;2022-07-01T02:03:29;1.13;;;0.65;;
11827;SDS011;5971;49.646;8.568;2022-07-01T02:06:31;1.33;;;0.85;;
11827;SDS011;5971;49.646;8.568;2022-07-01T02:09:32;1.48;;;0.88;;
11827;SDS011;5971;49.646;8.568;2022-07-01T02:12:34;1.00;;;0.60;;
11827;SDS011;5971;49.646;8.568;2022-07-01T02:15:35;1.33;;;0.70;;
11827;SDS011;5971;49.646;8.568;2022-07-01T02:18:36;1.45;;;0.85;;
11827;SDS011;5971;49.646;8.568;2022-07-01T02:21:38;2.15;;;0.90;;
11827;SDS011;5971;49.646;8.568;2022-07-01T02:24:39;1.63;;;0.98;;
11827;SDS011;5971;49.646;8.568;2022-07-01T02:27:41;2.00;;;0.90;;
11827;SDS011;5971;49.646;8.568;2022-07-01T02:30:43;1.25;;;0.80;;
11827;SDS011;5971;49.646;8.568;2022-07-01T02:33:44;1.17;;;0.68;;
11827;SDS011;5971;49.646;8.568;2022-07-01T02:36:46;1.70;;;0.70;;
11827;SDS011;5971;49.646;8.568;2022-07-01T02:39:47;2.35;;;1.00;;
11827;SDS011;5971;49.646;8.568;2022-07-01T02:42:49;1.60;;;1.00;;
11827;SDS011;5971;49.646;8.568;2022-07-01T02:45:50;0.88;;;0.60;;
11827;SDS011;5971;49.646;8.568;2022-07-01T02:48:51;1.85;;;1.05;;
11827;SDS011;5971;49.646;8.568;2022-07-01T02:51:53;1.65;;;1.00;;
11827;SDS011;5971;49.646;8.568;2022-07-01T02:54:54;1.48;;;0.80;;
11827;SDS011;5971;49.646;8.568;2022-07-01T02:57:56;1.40;;;0.82;;
11827;SDS011;5971;49.646;8.568;2022-07-01T03:00:57;1.13;;;0.73;;
11827;SDS011;5971;49.646;8.568;2022-07-01T03:03:59;1.45;;;0.80;;
11827;SDS011;5971;49.646;8.568;2022-07-01T03:07:00;1.27;;;0.90;;
11827;SDS011;5971;49.646;8.568;2022-07-01T03:10:02;2.10;;;1.05;;
11827;SDS011;5971;49.646;8.568;2022-07-01T03:13:04;1.33;;;0.70;;
11827;SDS011;5971;49.646;8.568;2022-07-01T03:16:05;1.25;;;0.90;;
11827;SDS011;5971;49.646;8.568;2022-07-01T03:19:06;1.70;;;0.80;;
11827;SDS011;5971;49.646;8.568;2022-07-01T03:22:08;1.17;;;0.77;;
11827;SDS011;5971;49.646;8.568;2022-07-01T03:25:09;1.73;;;0.75;;
11827;SDS011;5971;49.646;8.568;2022-07-01T03:28:11;1.23;;;0.77;;
11827;SDS011;5971;49.646;8.568;2022-07-01T03:31:12;1.30;;;0.90;;
11827;SDS011;5971;49.646;8.568;2022-07-01T03:34:13;1.80;;;0.80;;
11827;SDS011;5971;49.646;8.568;2022-07-01T03:37:15;1.08;;;0.63;;
11827;SDS011;5971;49.646;8.568;2022-07-01T03:40:17;0.93;;;0.82;;
11827;SDS011;5971;49.646;8.568;2022-07-01T03:43:18;1.17;;;0.85;;
11827;SDS011;5971;49.646;8.568;2022-07-01T03:46:22;2.60;;;0.82;;
11827;SDS011;5971;49.646;8.568;2022-07-01T03:49:23;1.05;;;0.70;;
11827;SDS011;5971;49.646;8.568;2022-07-01T03:52:24;1.40;;;0.60;;
11827;SDS011;5971;49.646;8.568;2022-07-01T03:55:26;1.70;;;0.93;;
11827;SDS011;5971;49.646;8.568;2022-07-01T03:58:27;1.08;;;0.93;;
11827;SDS011;5971;49.646;8.568;2022-07-01T04:01:29;1.95;;;0.95;;
11827;SDS011;5971;49.646;8.568;2022-07-01T04:04:31;1.20;;;0.93;;
11827;SDS011;5971;49.646;8.568;2022-07-01T04:07:32;1.23;;;0.68;;
11827;SDS011;5971;49.646;8.568;2022-07-01T04:10:35;1.30;;;0.70;;
11827;SDS011;5971;49.646;8.568;2022-07-01T04:13:36;1.63;;;0.90;;
11827;SDS011;5971;49.646;8.568;2022-07-01T04:16:38;1.42;;;0.85;;
11827;SDS011;5971;49.646;8.568;2022-07-01T04:19:40;1.58;;;0.70;;
11827;SDS011;5971;49.646;8.568;2022-07-01T04:22:41;1.20;;;0.82;;
11827;SDS011;5971;49.646;8.568;2022-07-01T04:25:43;1.20;;;0.82;;
11827;SDS011;5971;49.646;8.568;2022-07-01T04:28:44;1.58;;;0.88;;
11827;SDS011;5971;49.646;8.568;2022-07-01T04:31:46;1.90;;;0.70;;
11827;SDS011;5971;49.646;8.568;2022-07-01T04:34:47;1.55;;;0.90;;
11827;SDS011;5971;49.646;8.568;2022-07-01T04:37:48;1.33;;;0.85;;
11827;SDS011;5971;49.646;8.568;2022-07-01T04:40:50;1.80;;;1.42;;
11827;SDS011;5971;49.646;8.568;2022-07-01T04:44:10;1.27;;;0.68;;
11827;SDS011;5971;49.646;8.568;2022-07-01T04:47:11;1.40;;;0.88;;
11827;SDS011;5971;49.646;8.568;2022-07-01T04:50:13;1.38;;;0.80;;
11827;SDS011;5971;49.646;8.568;2022-07-01T04:53:14;1.70;;;0.90;;
11827;SDS011;5971;49.646;8.568;2022-07-01T04:56:15;1.17;;;0.73;;
11827;SDS011;5971;49.646;8.568;2022-07-01T04:59:17;1.20;;;0.75;;
11827;SDS011;5971;49.646;8.568;2022-07-01T05:02:18;1.48;;;0.90;;
11827;SDS011;5971;49.646;8.568;2022-07-01T05:05:20;1.38;;;0.75;;
11827;SDS011;5971;49.646;8.568;2022-07-01T05:08:21;1.50;;;0.93;;
11827;SDS011;5971;49.646;8.568;2022-07-01T05:11:22;3.55;;;1.10;;
11827;SDS011;5971;49.646;8.568;2022-07-01T05:14:24;0.93;;;0.65;;
11827;SDS011;5971;49.646;8.568;2022-07-01T05:17:25;1.30;;;0.63;;
11827;SDS011;5971;49.646;8.568;2022-07-01T05:20:46;1.80;;;0.88;;
11827;SDS011;5971;49.646;8.568;2022-07-01T05:24:10;1.65;;;0.73;;
11827;SDS011;5971;49.646;8.568;2022-07-01T05:27:12;1.05;;;0.73;;
11827;SDS011;5971;49.646;8.568;2022-07-01T05:30:13;1.25;;;0.85;;
11827;SDS011;5971;49.646;8.568;2022-07-01T05:33:14;1.48;;;0.63;;
11827;SDS011;5971;49.646;8.568;2022-07-01T05:36:16;1.90;;;1.00;;
11827;SDS011;5971;49.646;8.568;2022-07-01T05:39:17;0.88;;;0.80;;
11827;SDS011;5971;49.646;8.568;2022-07-01T05:42:19;1.85;;;0.80;;
11827;SDS011;5971;49.646;8.568;2022-07-01T05:45:20;1.10;;;0.73;;
11827;SDS011;5971;49.646;8.568;2022-07-01T05:48:21;1.25;;;0.73;;
11827;SDS011;5971;49.646;8.568;2022-07-01T05:51:23;1.88;;;0.70;;
11827;SDS011;5971;49.646;8.568;2022-07-01T05:54:25;0.82;;;0.80;;
11827;SDS011;5971;49.646;8.568;2022-07-01T05:57:26;1.65;;;0.82;;
11827;SDS011;5971;49.646;8.568;2022-07-01T06:00:28;1.70;;;0.98;;
11827;SDS011;5971;49.646;8.568;2022-07-01T06:03:29;1.63;;;0.70;;
11827;SDS011;5971;49.646;8.568;2022-07-01T06:06:31;1.75;;;1.00;;
11827;SDS011;5971;49.646;8.568;2022-07-01T06:09:32;2.08;;;1.10;;
11827;SDS011;5971;49.646;8.568;2022-07-01T06:12:33;1.38;;;0.88;;
11827;SDS011;5971;49.646;8.568;2022-07-01T06:15:35;1.60;;;0.93;;
11827;SDS011;5971;49.646;8.568;2022-07-01T06:18:36;2.22;;;0.93;;
11827;SDS011;5971;49.646;8.568;2022-07-01T06:21:38;1.60;;;1.00;;
11827;SDS011;5971;49.646;8.568;2022-07-01T06:24:39;1.95;;;1.02;;
11827;SDS011;5971;49.646;8.568;2022-07-01T06:27:42;1.40;;;0.90;;
11827;SDS011;5971;49.646;8.568;2022-07-01T06:30:43;1.83;;;0.88;;
11827;SDS011;5971;49.646;8.568;2022-07-01T06:33:45;1.27;;;0.90;;
11827;SDS011;5971;49.646;8.568;2022-07-01T06:36:46;1.95;;;1.08;;
11827;SDS011;5971;49.646;8.568;2022-07-01T06:39:47;1.80;;;1.02;;
11827;SDS011;5971;49.646;8.568;2022-07-01T06:42:49;2.20;;;1.23;;
11827;SDS011;5971;49.646;8.568;2022-07-01T06:45:51;2.38;;;1.00;;
11827;SDS011;5971;49.646;8.568;2022-07-01T06:48:52;1.90;;;1.13;;
11827;SDS011;5971;49.646;8.568;2022-07-01T06:51:54;2.08;;;1.23;;
11827;SDS011;5971;49.646;8.568;2022-07-01T06:54:55;1.67;;;0.90;;
11827;SDS011;5971;49.646;8.568;2022-07-01T06:57:56;1.77;;;1.00;;
11827;SDS011;5971;49.646;8.568;2022-07-01T07:00:58;3.92;;;1.40;;
11827;SDS011;5971;49.646;8.568;2022-07-01T07:03:59;3.17;;;1.25;;
11827;SDS011;5971;49.646;8.568;2022-07-01T07:07:01;2.70;;;1.40;;
11827;SDS011;5971;49.646;8.568;2022-07-01T07:10:02;2.00;;;1.08;;
11827;SDS011;5971;49.646;8.568;2022-07-01T07:13:04;2.72;;;1.33;;
11827;SDS011;5971;49.646;8.568;2022-07-01T07:16:05;2.45;;;1.02;;
11827;SDS011;5971;49.646;8.568;2022-07-01T07:19:06;3.03;;;1.30;;
11827;SDS011;5971;49.646;8.568;2022-07-01T07:22:08;2.67;;;1.58;;
11827;SDS011;5971;49.646;8.568;2022-07-01T07:25:10;3.10;;;1.48;;
11827;SDS011;5971;49.646;8.568;2022-07-01T07:28:11;3.65;;;1.50;;
11827;SDS011;5971;49.646;8.568;2022-07-01T07:31:13;2.95;;;1.50;;
11827;SDS011;5971;49.646;8.568;2022-07-01T07:34:14;2.60;;;1.30;;
11827;SDS011;5971;49.646;8.568;2022-07-01T07:37:17;3.33;;;1.63;;
11827;SDS011;5971;49.646;8.568;2022-07-01T07:40:18;3.42;;;1.30;;
11827;SDS011;5971;49.646;8.568;2022-07-01T07:43:19;3.92;;;1.42;;
11827;SDS011;5971;49.646;8.568;2022-07-01T07:46:21;2.63;;;1.50;;
11827;SDS011;5971;49.646;8.568;2022-07-01T07:49:23;2.80;;;1.58;;
11827;SDS011;5971;49.646;8.568;2022-07-01T07:52:24;3.15;;;1.88;;
11827;SDS011;5971;49.646;8.568;2022-07-01T07:55:26;3.90;;;1.50;;
11827;SDS011;5971;49.646;8.568;2022-07-01T07:58:29;2.60;;;1.50;;
11827;SDS011;5971;49.646;8.568;2022-07-01T08:01:30;2.13;;;1.33;;
11827;SDS011;5971;49.646;8.568;2022-07-01T08:04:31;3.63;;;1.75;;
11827;SDS011;5971;49.646;8.568;2022-07-01T08:07:36;3.53;;;1.58;;
11827;SDS011;5971;49.646;8.568;2022-07-01T08:10:38;3.30;;;1.60;;
11827;SDS011;5971;49.646;8.568;2022-07-01T08:13:39;3.40;;;1.38;;
11827;SDS011;5971;49.646;8.568;2022-07-01T08:16:41;2.40;;;1.35;;
11827;SDS011;5971;49.646;8.568;2022-07-01T08:19:42;1.92;;;1.20;;
11827;SDS011;5971;49.646;8.568;2022-07-01T08:22:43;2.25;;;1.50;;
11827;SDS011;5971;49.646;8.568;2022-07-01T08:25:45;3.40;;;1.75;;
11827;SDS011;5971;49.646;8.568;2022-07-01T08:28:47;3.67;;;1.23;;
11827;SDS011;5971;49.646;8.568;2022-07-01T08:31:48;3.03;;;1.33;;
11827;SDS011;5971;49.646;8.568;2022-07-01T08:34:54;3.17;;;1.40;;
11827;SDS011;5971;49.646;8.568;2022-07-01T08:37:55;2.88;;;1.50;;
11827;SDS011;5971;49.646;8.568;2022-07-01T08:40:57;3.00;;;1.63;;
11827;SDS011;5971;49.646;8.568;2022-07-01T08:43:59;3.05;;;1.25;;
11827;SDS011;5971;49.646;8.568;2022-07-01T08:47:00;2.30;;;1.40;;
11827;SDS011;5971;49.646;8.568;2022-07-01T08:50:02;2.30;;;1.30;;
11827;SDS011;5971;49.646;8.568;2022-07-01T08:53:04;3.35;;;1.50;;
11827;SDS011;5971;49.646;8.568;2022-07-01T08:56:06;2.70;;;1.30;;
11827;SDS011;5971;49.646;8.568;2022-07-01T08:59:26;2.75;;;1.73;;
11827;SDS011;5971;49.646;8.568;2022-07-01T09:02:28;3.22;;;1.40;;
11827;SDS011;5971;49.646;8.568;2022-07-01T09:05:50;2.92;;;1.33;;
11827;SDS011;5971;49.646;8.568;2022-07-01T09:08:52;3.15;;;1.55;;
11827;SDS011;5971;49.646;8.568;2022-07-01T09:11:54;2.28;;;1.30;;
11827;SDS011;5971;49.646;8.568;2022-07-01T09:14:56;3.00;;;1.63;;
11827;SDS011;5971;49.646;8.568;2022-07-01T09:18:17;2.72;;;1.42;;
11827;SDS011;5971;49.646;8.568;2022-07-01T09:21:21;3.55;;;1.52;;
11827;SDS011;5971;49.646;8.568;2022-07-01T09:24:24;2.85;;;1.55;;
11827;SDS011;5971;49.646;8.568;2022-07-01T09:27:26;3.65;;;1.30;;
11827;SDS011;5971;49.646;8.568;2022-07-01T09:30:27;3.25;;;1.52;;
11827;SDS011;5971;49.646;8.568;2022-07-01T09:33:29;2.00;;;1.10;;
11827;SDS011;5971;49.646;8.568;2022-07-01T09:36:30;2.55;;;1.30;;
11827;SDS011;5971;49.646;8.568;2022-07-01T09:39:42;2.58;;;1.25;;
11827;SDS011;5971;49.646;8.568;2022-07-01T09:42:44;1.92;;;1.13;;
11827;SDS011;5971;49.646;8.568;2022-07-01T09:46:04;1.80;;;0.95;;
11827;SDS011;5971;49.646;8.568;2022-07-01T09:49:07;2.92;;;1.17;;
11827;SDS011;5971;49.646;8.568;2022-07-01T09:52:08;2.55;;;1.23;;
11827;SDS011;5971;49.646;8.568;2022-07-01T09:55:11;1.85;;;0.85;;
11827;SDS011;5971;49.646;8.568;2022-07-01T09:58:14;1.95;;;1.33;;
11827;SDS011;5971;49.646;8.568;2022-07-01T10:01:15;1.65;;;1.02;;
11827;SDS011;5971;49.646;8.568;2022-07-01T10:04:17;2.03;;;0.98;;
11827;SDS011;5971;49.646;8.568;2022-07-01T10:13:35;2.00;;;1.10;;
11827;SDS011;5971;49.646;8.568;2022-07-01T10:16:37;1.90;;;1.30;;
11827;SDS011;5971;49.646;8.568;2022-07-01T10:19:39;1.40;;;0.82;;
11827;SDS011;5971;49.646;8.568;2022-07-01T10:22:42;2.45;;;1.02;;
11827;SDS011;5971;49.646;8.568;2022-07-01T10:25:48;1.10;;;0.98;;
11827;SDS011;5971;49.646;8.568;2022-07-01T10:28:49;1.38;;;0.93;;
11827;SDS011;5971;49.646;8.568;2022-07-01T10:31:54;1.50;;;0.80;;
11827;SDS011;5971;49.646;8.568;2022-07-01T10:35:04;2.45;;;1.10;;
11827;SDS011;5971;49.646;8.568;2022-07-01T10:38:05;1.90;;;0.85;;
11827;SDS011;5971;49.646;8.568;2022-07-01T10:41:22;1.15;;;0.75;;
11827;SDS011;5971;49.646;8.568;2022-07-01T10:44:25;1.50;;;0.88;;
11827;SDS011;5971;49.646;8.568;2022-07-01T10:47:27;1.63;;;0.90;;
11827;SDS011;5971;49.646;8.568;2022-07-01T10:50:28;1.55;;;0.90;;
11827;SDS011;5971;49.646;8.568;2022-07-01T10:53:45;1.23;;;0.82;;
11827;SDS011;5971;49.646;8.568;2022-07-01T10:56:54;1.38;;;0.88;;
11827;SDS011;5971;49.646;8.568;2022-07-01T10:59:57;1.90;;;1.08;;
11827;SDS011;5971;49.646;8.568;2022-07-01T11:03:18;2.05;;;0.70;;
11827;SDS011;5971;49.646;8.568;2022-07-01T11:06:20;1.60;;;0.98;;
11827;SDS011;5971;49.646;8.568;2022-07-01T11:09:21;1.88;;;0.95;;
11827;SDS011;5971;49.646;8.568;2022-07-01T11:12:23;1.40;;;0.82;;
11827;SDS011;5971;49.646;8.568;2022-07-01T11:15:25;1.42;;;0.95;;
11827;SDS011;5971;49.646;8.568;2022-07-01T11:18:27;1.35;;;0.80;;
11827;SDS011;5971;49.646;8.568;2022-07-01T11:21:29;1.67;;;1.05;;
11827;SDS011;5971;49.646;8.568;2022-07-01T11:24:30;1.58;;;1.13;;
11827;SDS011;5971;49.646;8.568;2022-07-01T11:27:32;0.98;;;0.73;;
11827;SDS011;5971;49.646;8.568;2022-07-01T11:30:34;1.42;;;0.82;;
11827;SDS011;5971;49.646;8.568;2022-07-01T11:33:35;1.63;;;0.80;;
11827;SDS011;5971;49.646;8.568;2022-07-01T11:36:42;1.70;;;0.80;;
11827;SDS011;5971;49.646;8.568;2022-07-01T11:43:17;1.77;;;0.80;;
11827;SDS011;5971;49.646;8.568;2022-07-01T11:46:18;1.02;;;0.80;;
11827;SDS011;5971;49.646;8.568;2022-07-01T11:49:20;1.17;;;0.68;;
11827;SDS011;5971;49.646;8.568;2022-07-01T11:52:24;1.30;;;0.70;;
11827;SDS011;5971;49.646;8.568;2022-07-01T11:55:26;1.55;;;0.73;;
11827;SDS011;5971;49.646;8.568;2022-07-01T12:01:51;1.08;;;0.80;;
11827;SDS011;5971;49.646;8.568;2022-07-01T12:04:52;1.13;;;0.73;;
11827;SDS011;5971;49.646;8.568;2022-07-01T12:07:54;1.02;;;0.65;;
11827;SDS011;5971;49.646;8.568;2022-07-01T12:10:55;1.17;;;0.70;;
11827;SDS011;5971;49.646;8.568;2022-07-01T12:14:00;1.33;;;0.90;;
11827;SDS011;5971;49.646;8.568;2022-07-01T12:17:05;1.38;;;0.75;;
11827;SDS011;5971;49.646;8.568;2022-07-01T12:20:07;1.40;;;0.80;;
11827;SDS011;5971;49.646;8.568;2022-07-01T12:23:12;1.33;;;0.80;;
11827;SDS011;5971;49.646;8.568;2022-07-01T12:26:14;1.35;;;0.73;;
11827;SDS011;5971;49.646;8.568;2022-07-01T12:29:19;0.93;;;0.63;;
11827;SDS011;5971;49.646;8.568;2022-07-01T12:32:27;1.35;;;0.82;;
11827;SDS011;5971;49.646;8.568;2022-07-01T12:35:29;1.70;;;0.82;;
11827;SDS011;5971;49.646;8.568;2022-07-01T12:38:36;1.65;;;0.73;;
11827;SDS011;5971;49.646;8.568;2022-07-01T12:41:38;1.40;;;0.90;;
11827;SDS011;5971;49.646;8.568;2022-07-01T12:44:44;1.90;;;1.00;;
11827;SDS011;5971;49.646;8.568;2022-07-01T12:47:46;1.40;;;0.90;;
11827;SDS011;5971;49.646;8.568;2022-07-01T12:50:47;1.90;;;1.23;;
11827;SDS011;5971;49.646;8.568;2022-07-01T12:53:52;2.30;;;0.88;;
11827;SDS011;5971;49.646;8.568;2022-07-01T12:56:54;1.88;;;1.08;;
11827;SDS011;5971;49.646;8.568;2022-07-01T12:59:55;1.75;;;1.02;;
11827;SDS011;5971;49.646;8.568;2022-07-01T13:02:58;2.08;;;1.25;;
11827;SDS011;5971;49.646;8.568;2022-07-01T13:06:00;2.97;;;1.23;;
11827;SDS011;5971;49.646;8.568;2022-07-01T13:09:02;2.25;;;1.20;;
11827;SDS011;5971;49.646;8.568;2022-07-01T13:12:03;2.13;;;1.15;;
11827;SDS011;5971;49.646;8.568;2022-07-01T13:15:05;1.92;;;1.15;;
11827;SDS011;5971;49.646;8.568;2022-07-01T13:18:07;2.28;;;1.02;;
11827;SDS011;5971;49.646;8.568;2022-07-01T13:21:09;2.40;;;1.20;;
11827;SDS011;5971;49.646;8.568;2022-07-01T13:24:11;2.35;;;1.20;;
11827;SDS011;5971;49.646;8.568;2022-07-01T13:27:33;2.17;;;1.25;;
11827;SDS011;5971;49.646;8.568;2022-07-01T13:30:34;2.50;;;1.30;;
11827;SDS011;5971;49.646;8.568;2022-07-01T13:33:37;2.03;;;1.20;;
11827;SDS011;5971;49.646;8.568;2022-07-01T13:36:39;1.95;;;1.20;;
11827;SDS011;5971;49.646;8.568;2022-07-01T13:39:40;2.10;;;1.23;;
11827;SDS011;5971;49.646;8.568;2022-07-01T13:42:43;2.10;;;1.13;;
11827;SDS011;5971;49.646;8.568;2022-07-01T13:45:44;2.17;;;1.27;;
11827;SDS011;5971;49.646;8.568;2022-07-01T13:48:46;2.58;;;1.33;;
11827;SDS011;5971;49.646;8.568;2022-07-01T13:51:47;3.17;;;1.55;;
11827;SDS011;5971;49.646;8.568;2022-07-01T13:54:49;2.20;;;1.25;;
11827;SDS011;5971;49.646;8.568;2022-07-01T13:57:51;2.10;;;1.42;;
11827;SDS011;5971;49.646;8.568;2022-07-01T14:00:52;2.10;;;1.17;;
11827;SDS011;5971;49.646;8.568;2022-07-01T14:03:53;1.90;;;0.93;;
11827;SDS011;5971;49.646;8.568;2022-07-01T14:06:55;2.30;;;1.20;;
11827;SDS011;5971;49.646;8.568;2022-07-01T14:09:56;2.42;;;1.40;;
11827;SDS011;5971;49.646;8.568;2022-07-01T14:12:58;2.30;;;1.25;;
11827;SDS011;5971;49.646;8.568;2022-07-01T14:15:59;2.75;;;1.25;;
11827;SDS011;5971;49.646;8.568;2022-07-01T14:19:01;2.10;;;1.35;;
11827;SDS011;5971;49.646;8.568;2022-07-01T14:22:02;2.42;;;1.30;;
11827;SDS011;5971;49.646;8.568;2022-07-01T14:25:04;2.17;;;1.33;;
11827;SDS011;5971;49.646;8.568;2022-07-01T14:28:05;2.10;;;0.95;;
11827;SDS011;5971;49.646;8.568;2022-07-01T14:31:07;2.90;;;1.40;;
11827;SDS011;5971;49.646;8.568;2022-07-01T14:34:09;1.55;;;1.10;;
11827;SDS011;5971;49.646;8.568;2022-07-01T14:37:10;1.83;;;1.15;;
11827;SDS011;5971;49.646;8.568;2022-07-01T14:40:12;1.85;;;1.20;;
11827;SDS011;5971;49.646;8.568;2022-07-01T14:43:13;1.85;;;1.00;;
11827;SDS011;5971;49.646;8.568;2022-07-01T14:46:15;2.03;;;1.00;;
11827;SDS011;5971;49.646;8.568;2022-07-01T14:49:17;2.10;;;0.90;;
11827;SDS011;5971;49.646;8.568;2022-07-01T14:52:22;1.60;;;1.05;;
11827;SDS011;5971;49.646;8.568;2022-07-01T14:55:24;1.40;;;1.00;;
11827;SDS011;5971;49.646;8.568;2022-07-01T14:58:25;1.60;;;1.05;;
11827;SDS011;5971;49.646;8.568;2022-07-01T15:01:26;1.38;;;0.90;;
11827;SDS011;5971;49.646;8.568;2022-07-01T15:04:28;1.23;;;0.85;;
11827;SDS011;5971;49.646;8.568;2022-07-01T15:07:29;2.38;;;1.23;;
11827;SDS011;5971;49.646;8.568;2022-07-01T15:10:31;1.67;;;0.90;;
11827;SDS011;5971;49.646;8.568;2022-07-01T15:13:32;1.60;;;1.00;;
11827;SDS011;5971;49.646;8.568;2022-07-01T15:16:36;1.50;;;1.20;;
11827;SDS011;5971;49.646;8.568;2022-07-01T15:19:37;1.90;;;1.20;;
11827;SDS011;5971;49.646;8.568;2022-07-01T15:22:40;2.42;;;1.02;;
11827;SDS011;5971;49.646;8.568;2022-07-01T15:25:41;2.10;;;1.02;;
11827;SDS011;5971;49.646;8.568;2022-07-01T15:28:43;1.95;;;1.15;;
11827;SDS011;5971;49.646;8.568;2022-07-01T15:31:44;2.05;;;0.93;;
11827;SDS011;5971;49.646;8.568;2022-07-01T15:34:51;2.60;;;0.95;;
11827;SDS011;5971;49.646;8.568;2022-07-01T15:37:52;2.30;;;1.10;;
11827;SDS011;5971;49.646;8.568;2022-07-01T15:40:54;1.70;;;1.00;;
11827;SDS011;5971;49.646;8.568;2022-07-01T15:43:56;1.83;;;1.13;;
11827;SDS011;5971;49.646;8.568;2022-07-01T15:46:57;1.60;;;1.02;;
11827;SDS011;5971;49.646;8.568;2022-07-01T15:49:58;2.00;;;1.15;;
11827;SDS011;5971;49.646;8.568;2022-07-01T15:53:00;1.85;;;1.20;;
11827;SDS011;5971;49.646;8.568;2022-07-01T15:56:02;2.45;;;1.17;;
11827;SDS011;5971;49.646;8.568;2022-07-01T15:59:03;1.27;;;0.95;;
11827;SDS011;5971;49.646;8.568;2022-07-01T16:02:05;1.75;;;0.98;;
11827;SDS011;5971;49.646;8.568;2022-07-01T16:05:07;3.55;;;1.55;;
11827;SDS011;5971;49.646;8.568;2022-07-01T16:08:11;3.08;;;1.40;;
11827;SDS011;5971;49.646;8.568;2022-07-01T16:11:13;1.50;;;0.93;;
11827;SDS011;5971;49.646;8.568;2022-07-01T16:14:16;1.88;;;1.00;;
11827;SDS011;5971;49.646;8.568;2022-07-01T16:17:20;1.80;;;1.10;;
11827;SDS011;5971;49.646;8.568;2022-07-01T16:20:23;1.67;;;0.93;;
11827;SDS011;5971;49.646;8.568;2022-07-01T16:23:28;1.52;;;1.00;;
11827;SDS011;5971;49.646;8.568;2022-07-01T16:26:29;1.77;;;1.13;;
11827;SDS011;5971;49.646;8.568;2022-07-01T16:29:31;1.33;;;0.90;;
11827;SDS011;5971;49.646;8.568;2022-07-01T16:32:34;1.33;;;0.95;;
11827;SDS011;5971;49.646;8.568;2022-07-01T16:35:44;1.65;;;0.90;;
11827;SDS011;5971;49.646;8.568;2022-07-01T16:45:04;1.45;;;0.95;;
11827;SDS011;5971;49.646;8.568;2022-07-01T16:48:06;1.35;;;0.80;;
11827;SDS011;5971;49.646;8.568;2022-07-01T16:51:07;0.93;;;0.68;;
11827;SDS011;5971;49.646;8.568;2022-07-01T16:54:11;1.52;;;0.95;;
11827;SDS011;5971;49.646;8.568;2022-07-01T16:57:14;1.67;;;1.45;;
11827;SDS011;5971;49.646;8.568;2022-07-01T17:00:16;1.13;;;0.82;;
11827;SDS011;5971;49.646;8.568;2022-07-01T17:03:21;1.05;;;0.70;;
11827;SDS011;5971;49.646;8.568;2022-07-01T17:06:26;1.38;;;0.88;;
11827;SDS011;5971;49.646;8.568;2022-07-01T17:09:27;1.40;;;0.80;;
11827;SDS011;5971;49.646;8.568;2022-07-01T17:12:29;1.45;;;1.05;;
11827;SDS011;5971;49.646;8.568;2022-07-01T17:15:32;3.22;;;0.73;;
11827;SDS011;5971;49.646;8.568;2022-07-01T17:18:33;1.05;;;0.73;;
11827;SDS011;5971;49.646;8.568;2022-07-01T17:21:36;0.93;;;0.63;;
11827;SDS011;5971;49.646;8.568;2022-07-01T17:34:05;1.50;;;0.93;;
11827;SDS011;5971;49.646;8.568;2022-07-01T17:37:10;1.27;;;0.82;;
11827;SDS011;5971;49.646;8.568;2022-07-01T17:40:11;1.50;;;0.90;;
11827;SDS011;5971;49.646;8.568;2022-07-01T17:43:17;1.52;;;0.90;;
11827;SDS011;5971;49.646;8.568;2022-07-01T17:46:19;1.23;;;0.80;;
11827;SDS011;5971;49.646;8.568;2022-07-01T17:49:21;1.80;;;1.13;;
11827;SDS011;5971;49.646;8.568;2022-07-01T17:52:24;2.50;;;0.95;;
11827;SDS011;5971;49.646;8.568;2022-07-01T17:55:26;1.65;;;1.42;;
11827;SDS011;5971;49.646;8.568;2022-07-01T17:58:27;1.83;;;0.88;;
11827;SDS011;5971;49.646;8.568;2022-07-01T18:01:31;3.28;;;0.95;;
11827;SDS011;5971;49.646;8.568;2022-07-01T18:04:33;1.48;;;0.90;;
11827;SDS011;5971;49.646;8.568;2022-07-01T18:07:34;1.27;;;0.77;;
11827;SDS011;5971;49.646;8.568;2022-07-01T18:10:46;1.77;;;0.90;;
11827;SDS011;5971;49.646;8.568;2022-07-01T18:29:18;1.60;;;0.82;;
11827;SDS011;5971;49.646;8.568;2022-07-01T18:32:23;1.55;;;0.93;;
11827;SDS011;5971;49.646;8.568;2022-07-01T18:35:31;1.23;;;0.90;;
11827;SDS011;5971;49.646;8.568;2022-07-01T18:38:32;1.92;;;0.77;;
11827;SDS011;5971;49.646;8.568;2022-07-01T18:41:34;1.70;;;0.75;;
11827;SDS011;5971;49.646;8.568;2022-07-01T18:44:35;1.60;;;0.85;;
11827;SDS011;5971;49.646;8.568;2022-07-01T18:47:37;1.60;;;0.82;;
11827;SDS011;5971;49.646;8.568;2022-07-01T18:50:39;1.40;;;0.82;;
11827;SDS011;5971;49.646;8.568;2022-07-01T18:53:40;2.25;;;0.93;;
11827;SDS011;5971;49.646;8.568;2022-07-01T18:56:42;1.10;;;0.70;;
11827;SDS011;5971;49.646;8.568;2022-07-01T18:59:43;2.78;;;0.82;;
11827;SDS011;5971;49.646;8.568;2022-07-01T19:02:45;2.17;;;1.10;;
11827;SDS011;5971;49.646;8.568;2022-07-01T19:05:46;1.40;;;1.00;;
11827;SDS011;5971;49.646;8.568;2022-07-01T19:08:48;1.67;;;0.73;;
11827;SDS011;5971;49.646;8.568;2022-07-01T19:11:49;2.55;;;1.10;;
11827;SDS011;5971;49.646;8.568;2022-07-01T19:14:50;1.90;;;0.80;;
11827;SDS011;5971;49.646;8.568;2022-07-01T19:17:52;1.30;;;0.82;;
11827;SDS011;5971;49.646;8.568;2022-07-01T19:20:53;1.25;;;0.90;;